GOTT

Details ICAO GOTT (TUD)
Name TAMBACOUNDA
Region Senegal
Timezone Africa/Dakar (UTC+0.0)
Plans Departing 7
Arriving 8
Stats Elevation 161 ft / 49 m (AMSL)
Location 13.736816° -13.653121°
Runways 1
Magnetic Variation 5.993° W
Sunrise 2017-12-18 07:13:07 UTC / 2017-12-18 07:13:07 Local
Sunset 2017-12-18 18:32:04 UTC / 2017-12-18 18:32:04 Local
Advertisement - Login to hide

Runways

ID Width Length Bearing (true) Bearing (mag) Surface Threshold Offset Overrun Length
06 98 ft / 30 m 6,565 ft / 2,001 m 49.20° 55.19° Asphalt 0 ft / 0 m 197 ft / 60 m
24 98 ft / 30 m 6,565 ft / 2,001 m 229.20° 235.19° Asphalt 0 ft / 0 m 197 ft / 60 m

Map

Weather


0- 5 10 15 20 25 30 35+ Temperature / ° C

Clouds and Precipitation
Forecast for 2017-12-18 18:00 UTC. Updated an hour ago

Ground ~20,000 ft ~40,000 ft Winds

METAR

GOTT 181300Z 02008KT CAVOK 32/10 Q1012

TAF

Not found

Frequencies

Tower 118.70 MHz AFIS INFO
Warning: Do not use this data for real-world aviation or navigation. No guarantee of current accuracy is given.